createdAt,value
2019-05-10T00:00:13.645Z,98.49
2019-05-10T00:02:59.855Z,97.82
2019-05-10T00:05:46.548Z,98.10
2019-05-10T00:08:32.640Z,97.61
2019-05-10T00:11:17.770Z,98.13
2019-05-10T00:13:49.331Z,98.71
2019-05-10T00:16:18.158Z,98.01
2019-05-10T00:18:45.998Z,97.75
2019-05-10T00:21:14.117Z,97.86
2019-05-10T00:23:42.510Z,98.13
2019-05-10T00:26:10.474Z,97.09
2019-05-10T00:28:39.363Z,97.04
2019-05-10T00:31:07.425Z,97.56
2019-05-10T00:33:35.378Z,97.93
2019-05-10T00:36:03.273Z,97.63
2019-05-10T00:38:31.256Z,97.71
2019-05-10T00:40:59.090Z,98.06
2019-05-10T00:43:27.095Z,98.25
2019-05-10T00:45:55.284Z,98.16
2019-05-10T00:48:23.327Z,97.98
2019-05-10T00:50:51.356Z,98.02
2019-05-10T00:53:19.284Z,98.11
2019-05-10T00:55:47.458Z,98.21
2019-05-10T00:58:15.633Z,98.46
2019-05-10T01:00:43.648Z,98.56
2019-05-10T01:03:11.771Z,97.95
2019-05-10T01:05:39.766Z,97.96
2019-05-10T01:08:07.700Z,98.05
2019-05-10T01:10:35.963Z,98.27
2019-05-10T01:13:04.120Z,99.31
2019-05-10T01:15:32.091Z,99.51
2019-05-10T01:18:01.763Z,100.00
2019-05-10T01:20:29.908Z,100.00
2019-05-10T01:22:58.159Z,99.04
2019-05-10T01:25:34.845Z,98.75
2019-05-10T01:27:55.955Z,98.95
2019-05-10T01:30:24.035Z,98.62
2019-05-10T01:32:52.115Z,98.62
2019-05-10T01:35:19.970Z,98.38
2019-05-10T01:37:47.863Z,98.42
2019-05-10T01:40:15.987Z,98.39
2019-05-10T01:42:44.052Z,98.48
2019-05-10T01:45:12.612Z,98.18
2019-05-10T01:47:40.747Z,98.46
2019-05-10T01:50:08.875Z,98.37
2019-05-10T01:52:36.831Z,98.07
2019-05-10T01:55:05.044Z,98.41
2019-05-10T01:57:32.937Z,97.76
2019-05-10T02:00:00.935Z,97.88
2019-05-10T02:02:28.978Z,98.33
2019-05-10T02:04:56.825Z,97.25
2019-05-10T02:07:24.796Z,97.74
2019-05-10T02:09:52.660Z,97.94
2019-05-10T02:12:20.589Z,98.20
2019-05-10T02:14:48.642Z,98.21
2019-05-10T02:17:16.861Z,98.12
2019-05-10T02:19:44.940Z,98.37
2019-05-10T02:22:13.182Z,97.77
2019-05-10T02:24:41.315Z,97.83
2019-05-10T02:27:09.338Z,98.86
2019-05-10T02:29:37.455Z,99.03
2019-05-10T02:32:05.392Z,97.97
2019-05-10T02:34:33.589Z,97.94
2019-05-10T02:37:01.468Z,97.84
2019-05-10T02:39:29.520Z,97.76
2019-05-10T02:41:57.773Z,98.13
2019-05-10T02:44:25.753Z,98.78
2019-05-10T02:46:53.676Z,98.77
2019-05-10T02:49:21.812Z,98.54
2019-05-10T02:51:49.784Z,98.52
2019-05-10T02:54:17.667Z,98.24
2019-05-10T02:56:45.617Z,97.89
2019-05-10T02:59:13.828Z,97.87
2019-05-10T03:01:44.732Z,97.81
2019-05-10T03:04:13.030Z,97.89
2019-05-10T03:06:42.661Z,98.22
2019-05-10T03:09:10.790Z,97.95
2019-05-10T03:11:49.169Z,97.90
2019-05-10T03:14:20.470Z,97.83
2019-05-10T03:16:51.792Z,97.95
2019-05-10T03:19:20.702Z,97.57
2019-05-10T03:22:05.141Z,96.81
2019-05-10T03:24:33.219Z,97.06
2019-05-10T03:27:01.239Z,97.25
2019-05-10T03:29:29.362Z,97.29
2019-05-10T03:31:57.590Z,97.26
2019-05-10T03:34:25.590Z,97.46
2019-05-10T03:36:53.489Z,97.40
2019-05-10T03:39:21.609Z,97.12
2019-05-10T03:41:49.937Z,97.25
2019-05-10T03:44:17.935Z,97.80
2019-05-10T03:46:45.991Z,97.95
2019-05-10T03:49:14.130Z,98.46
2019-05-10T03:51:42.408Z,98.12
2019-05-10T03:54:10.441Z,98.10
2019-05-10T03:56:38.380Z,98.33
2019-05-10T03:59:06.430Z,97.84
2019-05-10T04:01:36.201Z,96.97
2019-05-10T04:04:04.184Z,97.22
2019-05-10T04:06:32.215Z,96.89
2019-05-10T04:09:02.466Z,96.71
2019-05-10T04:11:31.500Z,97.04
2019-05-10T04:13:59.355Z,97.62
2019-05-10T04:16:27.454Z,97.94
2019-05-10T04:18:55.345Z,97.37
2019-05-10T04:21:23.305Z,97.37
2019-05-10T04:23:51.496Z,97.66
2019-05-10T04:26:19.537Z,97.58
2019-05-10T04:28:49.727Z,97.63
2019-05-10T04:31:17.854Z,97.66
2019-05-10T04:33:45.978Z,97.85
2019-05-10T04:36:14.225Z,97.99
2019-05-10T04:38:42.136Z,97.95
2019-05-10T04:41:10.080Z,97.79
2019-05-10T04:43:38.089Z,97.81
2019-05-10T04:46:06.302Z,97.67
2019-05-10T04:48:34.317Z,97.62
2019-05-10T04:51:02.492Z,97.52
2019-05-10T04:53:30.495Z,97.22
2019-05-10T04:55:58.346Z,96.87
2019-05-10T04:58:26.373Z,96.38
2019-05-10T05:00:54.390Z,96.61
2019-05-10T05:03:22.447Z,96.62
2019-05-10T05:05:50.353Z,96.39
2019-05-10T05:08:18.290Z,96.35
2019-05-10T05:10:46.283Z,95.40
2019-05-10T05:13:14.236Z,94.94
2019-05-10T05:15:42.384Z,94.71
2019-05-10T05:18:11.518Z,94.36
2019-05-10T05:20:39.661Z,94.02
2019-05-10T05:23:07.665Z,94.75
2019-05-10T05:25:40.312Z,93.41
2019-05-10T05:28:08.288Z,92.94
2019-05-10T05:30:38.707Z,92.37
2019-05-10T05:33:05.728Z,92.43
2019-05-10T05:35:33.930Z,92.59
2019-05-10T05:38:01.914Z,92.28
2019-05-10T05:40:29.936Z,91.86
2019-05-10T05:43:02.584Z,91.53
2019-05-10T05:45:28.243Z,90.31
2019-05-10T05:47:57.794Z,90.65
2019-05-10T05:50:25.896Z,88.80
2019-05-10T05:52:54.081Z,87.35
2019-05-10T05:55:23.119Z,88.54
2019-05-10T05:57:51.431Z,86.70
2019-05-10T06:00:19.386Z,88.22
2019-05-10T06:02:47.562Z,87.52
2019-05-10T06:05:32.225Z,86.24
2019-05-10T06:07:45.333Z,85.50
2019-05-10T06:10:17.044Z,84.36
2019-05-10T06:12:44.595Z,83.95
2019-05-10T06:15:13.275Z,83.55
2019-05-10T06:17:41.340Z,83.44
2019-05-10T06:20:11.082Z,83.31
2019-05-10T06:22:43.835Z,84.75
2019-05-10T06:25:08.998Z,83.73
2019-05-10T06:27:41.010Z,84.99
2019-05-10T06:30:07.023Z,86.51
2019-05-10T06:32:35.097Z,86.17
2019-05-10T06:35:02.998Z,85.43
2019-05-10T06:37:31.528Z,84.66
2019-05-10T06:39:59.536Z,84.92
2019-05-10T06:42:28.816Z,86.12
2019-05-10T06:44:57.553Z,83.67
2019-05-10T06:47:25.539Z,82.71
2019-05-10T06:49:53.618Z,80.93
2019-05-10T06:52:27.270Z,79.29
2019-05-10T06:54:51.494Z,80.16
2019-05-10T06:57:19.429Z,79.98
2019-05-10T06:59:47.562Z,79.39
2019-05-10T07:02:20.122Z,77.90
2019-05-10T07:04:45.538Z,77.21
2019-05-10T07:07:22.318Z,78.46
2019-05-10T07:10:03.744Z,79.11
2019-05-10T07:12:15.160Z,76.96
2019-05-10T07:14:46.071Z,74.20
2019-05-10T07:17:13.871Z,72.25
2019-05-10T07:19:53.237Z,71.05
2019-05-10T07:22:11.839Z,69.31
2019-05-10T07:24:40.670Z,66.89
2019-05-10T07:27:08.534Z,67.82
2019-05-10T07:29:42.707Z,63.69
2019-05-10T07:32:06.002Z,63.96
2019-05-10T07:34:33.903Z,63.72
2019-05-10T07:37:02.156Z,63.67
2019-05-10T07:39:30.135Z,64.12
2019-05-10T07:42:00.268Z,63.77
2019-05-10T07:44:28.009Z,64.47
2019-05-10T07:46:58.521Z,61.63
2019-05-10T07:49:30.361Z,61.08
2019-05-10T07:52:02.233Z,62.68
2019-05-10T07:54:26.176Z,60.50
2019-05-10T07:56:54.299Z,58.02
2019-05-10T07:59:27.962Z,55.84
2019-05-10T08:01:52.093Z,57.30
2019-05-10T08:04:30.514Z,56.93
2019-05-10T08:06:52.000Z,58.65
2019-05-10T08:09:20.057Z,56.48
2019-05-10T08:11:48.549Z,56.59
2019-05-10T08:14:19.265Z,53.30
2019-05-10T08:16:49.837Z,52.39
2019-05-10T08:19:17.498Z,52.31
2019-05-10T08:21:48.771Z,50.32
2019-05-10T08:24:16.744Z,49.55
2019-05-10T08:26:45.350Z,48.61
2019-05-10T08:29:16.887Z,48.59
2019-05-10T08:31:52.165Z,47.11
2019-05-10T08:34:14.868Z,43.49
2019-05-10T08:36:47.469Z,40.68
2019-05-10T08:39:14.048Z,40.04
2019-05-10T08:41:43.988Z,38.64
2019-05-10T08:44:19.398Z,38.91
2019-05-10T08:46:44.309Z,37.82
2019-05-10T08:49:12.982Z,33.77
2019-05-10T08:51:47.700Z,32.23
2019-05-10T08:54:12.141Z,33.27
2019-05-10T08:59:26.774Z,33.90
2019-05-10T09:01:55.169Z,30.42
2019-05-10T09:04:23.254Z,31.81
2019-05-10T09:06:55.601Z,29.57
2019-05-10T09:09:22.769Z,29.06
2019-05-10T09:11:57.743Z,28.77
2019-05-10T09:14:24.123Z,28.17
2019-05-10T09:17:00.506Z,28.15
2019-05-10T09:19:27.683Z,27.53
2019-05-10T09:21:55.062Z,29.54
2019-05-10T09:24:22.867Z,28.63
2019-05-10T09:26:54.901Z,26.95
2019-05-10T09:29:21.933Z,26.17
2019-05-10T09:31:51.259Z,25.01
2019-05-10T09:34:23.872Z,25.39
2019-05-10T09:36:52.975Z,25.49
2019-05-10T09:39:22.662Z,25.58
2019-05-10T09:41:52.813Z,24.39
2019-05-10T09:44:22.752Z,26.09
2019-05-10T09:46:52.438Z,24.59
2019-05-10T09:49:22.994Z,25.49
2019-05-10T09:51:52.798Z,25.29
2019-05-10T09:54:23.273Z,23.64
2019-05-10T09:56:52.252Z,25.42
2019-05-10T09:59:20.860Z,23.87
2019-05-10T10:01:48.958Z,25.69
2019-05-10T10:04:17.888Z,27.00
2019-05-10T10:06:51.026Z,24.34
2019-05-10T10:09:17.176Z,23.36
2019-05-10T10:11:57.362Z,22.82
2019-05-10T10:14:17.968Z,24.91
2019-05-10T10:16:57.890Z,23.29
2019-05-10T10:19:18.124Z,21.72
2019-05-10T10:21:47.664Z,22.02
2019-05-10T10:24:20.041Z,25.01
2019-05-10T10:26:47.873Z,24.18
2019-05-10T10:29:17.277Z,24.57
2019-05-10T10:31:54.622Z,23.34
2019-05-10T10:34:17.359Z,23.74
2019-05-10T10:36:47.122Z,24.22
2019-05-10T10:39:17.066Z,23.82
2019-05-10T10:41:45.195Z,23.48
2019-05-10T10:44:13.115Z,25.17
2019-05-10T10:46:41.103Z,25.30
2019-05-10T10:49:10.626Z,27.11
2019-05-10T10:51:39.681Z,26.06
2019-05-10T10:54:07.844Z,24.89
2019-05-10T10:56:37.412Z,23.92
2019-05-10T10:59:07.519Z,23.47
2019-05-10T11:01:49.240Z,25.18
2019-05-10T11:04:08.141Z,25.79
2019-05-10T11:06:35.507Z,27.73
2019-05-10T11:09:05.698Z,29.23
2019-05-10T11:11:39.098Z,31.84
2019-05-10T11:14:07.310Z,33.37
2019-05-10T11:16:33.603Z,33.41
2019-05-10T11:19:03.758Z,36.08
2019-05-10T11:21:33.448Z,36.69
2019-05-10T11:24:01.459Z,37.41
2019-05-10T11:26:32.871Z,37.21
2019-05-10T11:29:01.300Z,38.88
2019-05-10T11:31:31.165Z,39.44
2019-05-10T11:34:01.539Z,41.69
2019-05-10T11:36:31.258Z,43.69
2019-05-10T11:38:58.927Z,47.19
2019-05-10T11:41:27.673Z,48.21
2019-05-10T11:43:58.112Z,49.51
2019-05-10T11:46:27.979Z,49.62
2019-05-10T11:48:55.242Z,56.92
2019-05-10T11:51:23.740Z,55.66
2019-05-10T11:53:55.549Z,62.17
2019-05-10T11:56:27.356Z,63.93
2019-05-10T11:58:55.406Z,65.34
2019-05-10T12:01:22.306Z,65.66
2019-05-10T12:03:50.310Z,68.15
2019-05-10T12:06:18.482Z,69.44
2019-05-10T12:08:46.602Z,71.04
2019-05-10T12:11:27.605Z,66.75
2019-05-10T12:13:44.237Z,65.62
2019-05-10T12:16:16.654Z,62.25
2019-05-10T12:18:46.379Z,63.54
2019-05-10T12:21:12.220Z,65.71
2019-05-10T12:23:50.410Z,72.21
2019-05-10T12:28:40.981Z,66.72
2019-05-10T12:31:13.416Z,61.96
2019-05-10T12:33:42.022Z,60.61
2019-05-10T12:36:13.052Z,67.16
2019-05-10T12:38:38.861Z,61.64
2019-05-10T12:41:07.022Z,55.35
2019-05-10T12:43:35.004Z,54.93
2019-05-10T12:46:02.789Z,57.77
2019-05-10T12:48:32.113Z,57.40
2019-05-10T12:51:07.554Z,57.13
2019-05-10T12:53:31.516Z,58.06
2019-05-10T12:55:59.645Z,60.64
2019-05-10T12:58:27.666Z,59.81
2019-05-10T13:00:58.816Z,61.38
2019-05-10T13:03:31.533Z,64.08
2019-05-10T13:05:55.546Z,67.02
2019-05-10T13:08:23.583Z,68.27
2019-05-10T13:10:51.466Z,71.16
2019-05-10T13:13:23.721Z,71.88
2019-05-10T13:15:49.367Z,72.21
2019-05-10T13:18:17.525Z,72.77
2019-05-10T13:20:45.592Z,71.06
2019-05-10T13:23:16.257Z,70.37
2019-05-10T13:25:43.580Z,71.38
2019-05-10T13:28:11.961Z,71.03
2019-05-10T13:30:40.241Z,71.83
2019-05-10T13:33:08.235Z,69.55
2019-05-10T13:35:36.171Z,73.30
2019-05-10T13:38:06.413Z,71.17
2019-05-10T13:40:38.927Z,70.49
2019-05-10T13:43:04.225Z,69.35
2019-05-10T13:45:37.675Z,67.79
2019-05-10T13:48:01.804Z,66.51
2019-05-10T13:50:30.549Z,63.90
2019-05-10T13:52:58.491Z,60.59
2019-05-10T13:55:26.213Z,57.64
2019-05-10T13:57:54.340Z,61.36
2019-05-10T14:00:22.190Z,57.77
2019-05-10T14:02:50.534Z,57.10
2019-05-10T14:05:19.931Z,61.37
2019-05-10T14:07:51.667Z,59.12
2019-05-10T14:10:22.800Z,58.34
2019-05-10T14:12:47.821Z,59.49
2019-05-10T14:15:16.127Z,56.89
2019-05-10T14:17:44.251Z,57.46
2019-05-10T14:20:19.538Z,54.92
2019-05-10T14:22:48.526Z,55.64
2019-05-10T14:25:12.507Z,55.88
2019-05-10T14:27:40.399Z,57.42
2019-05-10T14:30:13.567Z,56.66
2019-05-10T14:32:40.011Z,56.38
2019-05-10T14:35:08.335Z,55.04
2019-05-10T14:37:36.435Z,55.24
2019-05-10T14:40:05.714Z,53.71
2019-05-10T14:42:33.784Z,54.46
2019-05-10T14:45:01.894Z,54.02
2019-05-10T14:47:29.851Z,54.38
2019-05-10T14:49:59.661Z,55.65
2019-05-10T14:52:28.029Z,58.25
2019-05-10T14:54:56.931Z,54.83
2019-05-10T14:57:25.319Z,54.35
2019-05-10T14:59:53.376Z,54.22
2019-05-10T15:02:22.651Z,53.42
2019-05-10T15:04:51.444Z,53.06
2019-05-10T15:07:19.479Z,52.02
2019-05-10T15:09:48.531Z,51.39
2019-05-10T15:12:21.975Z,52.87
2019-05-10T15:14:45.901Z,52.87
2019-05-10T15:17:14.266Z,52.99
2019-05-10T15:19:42.315Z,52.86
2019-05-10T15:22:10.447Z,51.48
2019-05-10T15:24:38.249Z,53.96
2019-05-10T15:27:05.924Z,55.22
2019-05-10T15:29:33.908Z,54.06
2019-05-10T15:32:02.037Z,54.48
2019-05-10T15:34:30.108Z,55.88
2019-05-10T15:37:02.478Z,57.79
2019-05-10T15:39:28.645Z,59.01
2019-05-10T15:41:59.475Z,59.80
2019-05-10T15:44:31.294Z,62.36
2019-05-10T15:46:57.680Z,62.15
2019-05-10T15:49:25.879Z,62.91
2019-05-10T15:54:24.043Z,63.76
2019-05-10T15:56:55.489Z,64.10
2019-05-10T15:59:22.165Z,64.49
2019-05-10T15:59:23.467Z,62.46
2019-05-10T16:01:49.909Z,66.14
2019-05-10T16:04:17.850Z,66.23
2019-05-10T16:06:45.855Z,66.34
2019-05-10T16:09:17.439Z,67.05
2019-05-10T16:11:43.957Z,66.88
2019-05-10T16:14:12.191Z,68.24
2019-05-10T16:16:40.328Z,68.32
2019-05-10T16:19:12.934Z,69.42
2019-05-10T16:21:41.102Z,69.79
2019-05-10T16:24:09.265Z,71.17
2019-05-10T16:26:37.330Z,71.94
2019-05-10T16:29:05.345Z,72.39
2019-05-10T16:31:33.587Z,73.38
2019-05-10T16:34:01.649Z,73.04
2019-05-10T16:36:30.165Z,73.35
2019-05-10T16:39:01.516Z,74.03
2019-05-10T16:41:28.055Z,73.49
2019-05-10T16:43:58.498Z,74.29
2019-05-10T16:46:27.203Z,74.53
2019-05-10T16:48:55.183Z,74.72
2019-05-10T16:51:23.322Z,74.72
2019-05-10T16:53:51.385Z,75.28
2019-05-10T16:56:21.234Z,75.50
2019-05-10T16:58:53.016Z,73.40
2019-05-10T17:01:25.057Z,71.38
2019-05-10T17:03:51.243Z,71.44
2019-05-10T17:06:19.410Z,71.34
2019-05-10T17:08:47.559Z,72.11
2019-05-10T17:11:16.145Z,71.83
2019-05-10T17:13:44.435Z,71.41
2019-05-10T17:16:16.979Z,72.15
2019-05-10T17:18:43.553Z,72.77
2019-05-10T17:21:11.656Z,71.17
2019-05-10T17:23:41.682Z,72.42
2019-05-10T17:26:09.571Z,72.87
2019-05-10T17:28:38.543Z,72.79
2019-05-10T17:31:07.985Z,73.51
2019-05-10T17:33:42.123Z,73.18
2019-05-10T17:36:08.734Z,73.27
2019-05-10T17:38:36.666Z,72.35
2019-05-10T17:41:04.596Z,73.04
2019-05-10T17:43:32.557Z,74.12
2019-05-10T17:46:00.495Z,73.54
2019-05-10T17:48:28.516Z,73.17
2019-05-10T17:50:56.614Z,73.31
2019-05-10T17:53:24.751Z,72.60
2019-05-10T17:55:55.593Z,72.05
2019-05-10T17:58:22.488Z,71.83
2019-05-10T18:00:50.392Z,72.38
2019-05-10T18:03:18.441Z,73.35
2019-05-10T18:05:48.832Z,73.16
2019-05-10T18:08:16.132Z,72.79
2019-05-10T18:10:44.158Z,73.19
2019-05-10T18:13:12.047Z,74.10
2019-05-10T18:15:40.021Z,74.73
2019-05-10T18:18:08.012Z,74.92
2019-05-10T18:20:41.782Z,74.28
2019-05-10T18:23:06.082Z,74.12
2019-05-10T18:25:33.991Z,74.16
2019-05-10T18:28:03.039Z,75.04
2019-05-10T18:30:30.975Z,75.33
2019-05-10T18:33:00.535Z,75.57
2019-05-10T18:35:28.344Z,76.47
2019-05-10T18:37:59.623Z,77.18
2019-05-10T18:40:31.821Z,78.36
2019-05-10T18:42:57.885Z,78.61
2019-05-10T18:45:28.717Z,79.00
2019-05-10T18:47:56.699Z,79.10
2019-05-10T18:54:14.583Z,79.07
2019-05-10T18:56:42.674Z,79.18
2019-05-10T18:59:10.656Z,80.02
2019-05-10T19:01:40.705Z,79.55
2019-05-10T19:04:13.963Z,79.81
2019-05-10T19:06:44.282Z,80.31
2019-05-10T19:09:09.079Z,81.18
2019-05-10T19:11:38.937Z,81.74
2019-05-10T19:14:07.075Z,82.72
2019-05-10T19:16:35.078Z,82.61
2019-05-10T19:19:03.683Z,83.06
2019-05-10T19:21:32.620Z,83.46
2019-05-10T19:24:00.689Z,84.02
2019-05-10T19:26:29.657Z,83.81
2019-05-10T19:28:59.157Z,82.10
2019-05-10T19:31:31.690Z,81.22
2019-05-10T19:33:58.466Z,81.28
2019-05-10T19:36:26.576Z,81.01
2019-05-10T19:38:54.596Z,81.56
2019-05-10T19:41:25.586Z,80.80
2019-05-10T19:43:56.091Z,80.72
2019-05-10T19:46:22.662Z,81.34
2019-05-10T19:48:50.803Z,81.53
2019-05-10T19:51:22.489Z,82.47
2019-05-10T19:53:48.799Z,83.10
2019-05-10T19:56:17.317Z,84.10
2019-05-10T19:58:49.089Z,84.48
2019-05-10T20:01:16.148Z,85.04
2019-05-10T20:04:09.405Z,85.71
2019-05-10T20:06:42.528Z,86.45
2019-05-10T20:09:10.976Z,86.25
2019-05-10T20:11:39.121Z,86.62
2019-05-10T20:14:30.349Z,86.62
2019-05-10T20:17:04.594Z,87.23
2019-05-10T20:19:33.939Z,87.31
2019-05-10T20:22:04.969Z,87.67
2019-05-10T20:24:36.795Z,88.20
2019-05-10T20:27:05.008Z,88.06
2019-05-10T20:29:33.961Z,88.35
2019-05-10T20:32:01.891Z,88.35
2019-05-10T20:34:29.819Z,88.42
2019-05-10T20:36:57.721Z,88.70
2019-05-10T20:39:25.622Z,89.23
2019-05-10T20:41:53.760Z,89.22
2019-05-10T20:44:21.778Z,89.58
2019-05-10T20:46:49.678Z,88.92
2019-05-10T20:49:17.725Z,89.45
2019-05-10T20:51:45.734Z,89.67
2019-05-10T20:54:13.643Z,89.65
2019-05-10T20:56:41.696Z,89.58
2019-05-10T20:59:09.760Z,89.89
2019-05-10T21:01:37.825Z,89.80
2019-05-10T21:04:05.688Z,89.93
2019-05-10T21:06:33.759Z,90.11
2019-05-10T21:09:01.580Z,90.23
2019-05-10T21:11:31.293Z,90.49
2019-05-10T21:13:59.177Z,90.40
2019-05-10T21:16:27.213Z,90.21
2019-05-10T21:18:55.025Z,90.38
2019-05-10T21:21:23.050Z,90.08
2019-05-10T21:23:50.953Z,90.38
2019-05-10T21:26:18.837Z,90.49
2019-05-10T21:28:46.804Z,90.23
2019-05-10T21:31:15.133Z,90.40
2019-05-10T21:33:43.427Z,90.57
2019-05-10T21:36:11.726Z,91.28
2019-05-10T21:38:41.864Z,91.22
2019-05-10T21:41:10.706Z,91.14
2019-05-10T21:43:38.857Z,91.27
2019-05-10T21:46:06.849Z,91.57
2019-05-10T21:48:34.789Z,91.78
2019-05-10T21:51:02.787Z,92.20
2019-05-10T21:53:30.700Z,92.57
2019-05-10T21:55:58.670Z,91.76
2019-05-10T21:58:26.548Z,92.10
2019-05-10T22:00:54.555Z,92.34
2019-05-10T22:03:24.327Z,92.53
2019-05-10T22:05:52.340Z,92.96
2019-05-10T22:08:20.348Z,92.99
2019-05-10T22:10:48.311Z,93.06
2019-05-10T22:13:16.017Z,92.96
2019-05-10T22:15:43.999Z,92.68
2019-05-10T22:18:13.058Z,92.87
2019-05-10T22:20:40.824Z,92.88
2019-05-10T22:23:08.708Z,92.70
2019-05-10T22:25:36.716Z,92.88
2019-05-10T22:28:04.757Z,93.01
2019-05-10T22:30:32.633Z,92.65
2019-05-10T22:33:00.597Z,93.04
2019-05-10T22:35:28.593Z,93.29
2019-05-10T22:37:56.607Z,93.32
2019-05-10T22:40:24.466Z,93.13
2019-05-10T22:42:52.354Z,93.27
2019-05-10T22:45:20.273Z,93.58
2019-05-10T22:47:48.235Z,93.34
2019-05-10T22:50:16.049Z,93.56
2019-05-10T22:52:44.477Z,93.93
2019-05-10T22:55:12.406Z,94.52
2019-05-10T22:57:40.017Z,93.91
2019-05-10T23:00:09.530Z,93.86
2019-05-10T23:02:39.723Z,93.91
2019-05-10T23:05:08.000Z,94.97
2019-05-10T23:07:36.691Z,94.68
2019-05-10T23:10:04.715Z,94.05
2019-05-10T23:12:32.935Z,94.00
2019-05-10T23:15:01.078Z,94.40
2019-05-10T23:17:29.221Z,94.85
2019-05-10T23:19:57.582Z,95.23
2019-05-10T23:22:25.776Z,95.40
2019-05-10T23:24:53.985Z,95.79
2019-05-10T23:27:22.238Z,95.92
2019-05-10T23:29:50.224Z,95.92
2019-05-10T23:32:18.099Z,95.75
2019-05-10T23:34:46.281Z,95.87
2019-05-10T23:37:14.694Z,95.97
2019-05-10T23:39:42.755Z,95.16
2019-05-10T23:42:10.771Z,95.30
2019-05-10T23:44:38.690Z,95.64
2019-05-10T23:47:07.164Z,95.97
2019-05-10T23:49:35.238Z,96.26
2019-05-10T23:52:03.324Z,95.76
2019-05-10T23:54:31.229Z,95.58
2019-05-10T23:56:59.312Z,95.61
2019-05-10T23:59:27.073Z,95.88
